sensor_id;sensor_type;location;lat;lon;timestamp;temperature;humidity
10384;DHT22;5238;43.508;4.980;2024-01-15T00:01:08;4.80;91.30
10384;DHT22;5238;43.508;4.980;2024-01-15T00:03:36;4.80;91.30
10384;DHT22;5238;43.508;4.980;2024-01-15T00:06:04;4.80;91.30
10384;DHT22;5238;43.508;4.980;2024-01-15T00:08:31;4.70;91.30
10384;DHT22;5238;43.508;4.980;2024-01-15T00:10:58;4.60;91.30
10384;DHT22;5238;43.508;4.980;2024-01-15T00:13:25;4.60;91.30
10384;DHT22;5238;43.508;4.980;2024-01-15T00:15:52;4.60;91.30
10384;DHT22;5238;43.508;4.980;2024-01-15T00:18:18;4.60;91.30
10384;DHT22;5238;43.508;4.980;2024-01-15T00:20:47;4.60;91.30
10384;DHT22;5238;43.508;4.980;2024-01-15T00:23:14;4.50;91.30
10384;DHT22;5238;43.508;4.980;2024-01-15T00:25:41;4.50;91.30
10384;DHT22;5238;43.508;4.980;2024-01-15T00:28:08;4.50;91.30
10384;DHT22;5238;43.508;4.980;2024-01-15T00:30:35;4.40;91.30
10384;DHT22;5238;43.508;4.980;2024-01-15T00:33:02;4.40;91.30
10384;DHT22;5238;43.508;4.980;2024-01-15T00:35:29;4.40;91.30
10384;DHT22;5238;43.508;4.980;2024-01-15T00:37:57;4.40;91.30
10384;DHT22;5238;43.508;4.980;2024-01-15T00:40:24;4.40;91.30
10384;DHT22;5238;43.508;4.980;2024-01-15T00:42:52;4.30;91.30
10384;DHT22;5238;43.508;4.980;2024-01-15T00:45:19;4.30;91.30
10384;DHT22;5238;43.508;4.980;2024-01-15T00:47:46;4.30;91.30
10384;DHT22;5238;43.508;4.980;2024-01-15T00:50:13;4.20;91.30
10384;DHT22;5238;43.508;4.980;2024-01-15T00:52:40;4.20;91.30
10384;DHT22;5238;43.508;4.980;2024-01-15T00:55:08;4.20;91.30
10384;DHT22;5238;43.508;4.980;2024-01-15T00:57:35;4.20;91.30
10384;DHT22;5238;43.508;4.980;2024-01-15T01:00:03;4.20;91.30
10384;DHT22;5238;43.508;4.980;2024-01-15T01:02:30;4.20;91.30
10384;DHT22;5238;43.508;4.980;2024-01-15T01:04:57;4.10;91.30
10384;DHT22;5238;43.508;4.980;2024-01-15T01:07:24;4.20;91.30
10384;DHT22;5238;43.508;4.980;2024-01-15T01:09:51;4.10;91.30
10384;DHT22;5238;43.508;4.980;2024-01-15T01:12:19;4.10;91.30
10384;DHT22;5238;43.508;4.980;2024-01-15T01:14:46;4.10;91.30
10384;DHT22;5238;43.508;4.980;2024-01-15T01:17:13;4.10;91.30
10384;DHT22;5238;43.508;4.980;2024-01-15T01:19:40;4.10;91.30
10384;DHT22;5238;43.508;4.980;2024-01-15T01:22:07;4.10;91.30
10384;DHT22;5238;43.508;4.980;2024-01-15T01:24:34;4.10;91.30
10384;DHT22;5238;43.508;4.980;2024-01-15T01:27:01;4.10;91.30
10384;DHT22;5238;43.508;4.980;2024-01-15T01:29:30;4.10;91.30
10384;DHT22;5238;43.508;4.980;2024-01-15T01:31:57;4.00;91.30
10384;DHT22;5238;43.508;4.980;2024-01-15T01:34:24;4.00;91.30
10384;DHT22;5238;43.508;4.980;2024-01-15T01:36:50;3.90;91.30
10384;DHT22;5238;43.508;4.980;2024-01-15T01:39:17;3.90;91.30
10384;DHT22;5238;43.508;4.980;2024-01-15T01:41:44;3.90;91.30
10384;DHT22;5238;43.508;4.980;2024-01-15T01:44:11;3.90;91.30
10384;DHT22;5238;43.508;4.980;2024-01-15T01:46:40;3.90;91.30
10384;DHT22;5238;43.508;4.980;2024-01-15T01:49:08;3.90;91.30
10384;DHT22;5238;43.508;4.980;2024-01-15T01:51:35;4.00;91.30
10384;DHT22;5238;43.508;4.980;2024-01-15T01:54:04;4.00;91.30
10384;DHT22;5238;43.508;4.980;2024-01-15T01:56:32;4.00;91.30
10384;DHT22;5238;43.508;4.980;2024-01-15T01:59:00;4.00;91.30
10384;DHT22;5238;43.508;4.980;2024-01-15T02:01:28;4.10;91.30
10384;DHT22;5238;43.508;4.980;2024-01-15T02:03:57;4.10;91.30
10384;DHT22;5238;43.508;4.980;2024-01-15T02:06:24;4.10;91.30
10384;DHT22;5238;43.508;4.980;2024-01-15T02:08:51;4.20;91.30
10384;DHT22;5238;43.508;4.980;2024-01-15T02:11:18;4.20;91.30
10384;DHT22;5238;43.508;4.980;2024-01-15T02:13:46;4.20;91.30
10384;DHT22;5238;43.508;4.980;2024-01-15T02:16:13;4.20;91.30
10384;DHT22;5238;43.508;4.980;2024-01-15T02:18:40;4.10;91.30
10384;DHT22;5238;43.508;4.980;2024-01-15T02:21:10;4.10;91.30
10384;DHT22;5238;43.508;4.980;2024-01-15T02:23:39;4.10;91.30
10384;DHT22;5238;43.508;4.980;2024-01-15T02:26:06;4.10;91.30
10384;DHT22;5238;43.508;4.980;2024-01-15T02:28:34;4.10;91.30
10384;DHT22;5238;43.508;4.980;2024-01-15T02:31:01;4.10;91.30
10384;DHT22;5238;43.508;4.980;2024-01-15T02:33:28;4.20;91.30
10384;DHT22;5238;43.508;4.980;2024-01-15T02:35:55;4.20;91.30
10384;DHT22;5238;43.508;4.980;2024-01-15T02:38:22;4.20;91.30
10384;DHT22;5238;43.508;4.980;2024-01-15T02:40:50;4.20;91.30
10384;DHT22;5238;43.508;4.980;2024-01-15T02:43:17;4.20;91.30
10384;DHT22;5238;43.508;4.980;2024-01-15T02:45:45;4.30;91.30
10384;DHT22;5238;43.508;4.980;2024-01-15T02:48:12;4.30;91.30
10384;DHT22;5238;43.508;4.980;2024-01-15T02:50:39;4.30;91.30
10384;DHT22;5238;43.508;4.980;2024-01-15T02:53:06;4.30;91.30
10384;DHT22;5238;43.508;4.980;2024-01-15T02:55:33;4.30;91.30
10384;DHT22;5238;43.508;4.980;2024-01-15T02:58:02;4.30;91.30
10384;DHT22;5238;43.508;4.980;2024-01-15T03:00:28;4.30;91.30
10384;DHT22;5238;43.508;4.980;2024-01-15T03:02:56;4.20;91.30
10384;DHT22;5238;43.508;4.980;2024-01-15T03:05:22;4.20;91.30
10384;DHT22;5238;43.508;4.980;2024-01-15T03:07:49;4.20;91.30
10384;DHT22;5238;43.508;4.980;2024-01-15T03:10:16;4.20;91.30
10384;DHT22;5238;43.508;4.980;2024-01-15T03:12:43;4.20;91.30
10384;DHT22;5238;43.508;4.980;2024-01-15T03:15:11;4.20;91.30
10384;DHT22;5238;43.508;4.980;2024-01-15T03:17:38;4.20;91.30
10384;DHT22;5238;43.508;4.980;2024-01-15T03:20:06;4.20;91.30
10384;DHT22;5238;43.508;4.980;2024-01-15T03:22:33;4.20;91.30
10384;DHT22;5238;43.508;4.980;2024-01-15T03:25:00;4.20;91.30
10384;DHT22;5238;43.508;4.980;2024-01-15T03:27:27;4.20;91.30
10384;DHT22;5238;43.508;4.980;2024-01-15T03:29:54;4.20;91.30
10384;DHT22;5238;43.508;4.980;2024-01-15T03:32:22;4.20;91.30
10384;DHT22;5238;43.508;4.980;2024-01-15T03:34:49;4.20;91.30
10384;DHT22;5238;43.508;4.980;2024-01-15T03:37:17;4.20;91.30
10384;DHT22;5238;43.508;4.980;2024-01-15T03:39:45;4.10;91.30
10384;DHT22;5238;43.508;4.980;2024-01-15T03:42:12;4.10;91.30
10384;DHT22;5238;43.508;4.980;2024-01-15T03:44:40;4.10;91.30
10384;DHT22;5238;43.508;4.980;2024-01-15T03:47:06;4.10;91.30
10384;DHT22;5238;43.508;4.980;2024-01-15T03:49:35;4.10;91.30
10384;DHT22;5238;43.508;4.980;2024-01-15T03:52:02;4.10;91.30
10384;DHT22;5238;43.508;4.980;2024-01-15T03:54:29;4.10;91.30
10384;DHT22;5238;43.508;4.980;2024-01-15T03:56:56;4.10;91.30
10384;DHT22;5238;43.508;4.980;2024-01-15T03:59:23;4.20;91.30
10384;DHT22;5238;43.508;4.980;2024-01-15T04:01:50;4.20;91.30
10384;DHT22;5238;43.508;4.980;2024-01-15T04:04:17;4.20;91.30
10384;DHT22;5238;43.508;4.980;2024-01-15T04:06:45;4.20;91.30
10384;DHT22;5238;43.508;4.980;2024-01-15T04:09:13;4.20;91.30
10384;DHT22;5238;43.508;4.980;2024-01-15T04:11:40;4.20;91.30
10384;DHT22;5238;43.508;4.980;2024-01-15T04:14:07;4.30;91.30
10384;DHT22;5238;43.508;4.980;2024-01-15T04:16:34;4.30;91.30
10384;DHT22;5238;43.508;4.980;2024-01-15T04:19:01;4.30;91.30
10384;DHT22;5238;43.508;4.980;2024-01-15T04:21:28;4.40;91.30
10384;DHT22;5238;43.508;4.980;2024-01-15T04:23:56;4.40;91.30
10384;DHT22;5238;43.508;4.980;2024-01-15T04:26:23;4.50;91.30
10384;DHT22;5238;43.508;4.980;2024-01-15T04:28:50;4.50;91.30
10384;DHT22;5238;43.508;4.980;2024-01-15T04:31:22;4.50;91.30
10384;DHT22;5238;43.508;4.980;2024-01-15T04:33:49;4.60;91.30
10384;DHT22;5238;43.508;4.980;2024-01-15T04:36:15;4.60;91.30
10384;DHT22;5238;43.508;4.980;2024-01-15T04:38:42;4.50;91.30
10384;DHT22;5238;43.508;4.980;2024-01-15T04:41:12;4.50;91.30
10384;DHT22;5238;43.508;4.980;2024-01-15T04:43:39;4.50;91.30
10384;DHT22;5238;43.508;4.980;2024-01-15T04:46:06;4.50;91.30
10384;DHT22;5238;43.508;4.980;2024-01-15T04:48:33;4.50;91.30
10384;DHT22;5238;43.508;4.980;2024-01-15T04:51:00;4.50;91.30
10384;DHT22;5238;43.508;4.980;2024-01-15T04:53:27;4.40;91.30
10384;DHT22;5238;43.508;4.980;2024-01-15T04:55:54;4.40;91.30
10384;DHT22;5238;43.508;4.980;2024-01-15T04:58:23;4.40;91.30
10384;DHT22;5238;43.508;4.980;2024-01-15T05:00:52;4.40;91.30
10384;DHT22;5238;43.508;4.980;2024-01-15T05:03:20;4.40;91.30
10384;DHT22;5238;43.508;4.980;2024-01-15T05:05:46;4.40;91.30
10384;DHT22;5238;43.508;4.980;2024-01-15T05:08:13;4.40;91.30
10384;DHT22;5238;43.508;4.980;2024-01-15T05:10:40;4.40;91.30
10384;DHT22;5238;43.508;4.980;2024-01-15T05:13:07;4.40;91.30
10384;DHT22;5238;43.508;4.980;2024-01-15T05:15:36;4.50;91.30
10384;DHT22;5238;43.508;4.980;2024-01-15T05:18:03;4.50;91.30
10384;DHT22;5238;43.508;4.980;2024-01-15T05:20:30;4.50;91.30
10384;DHT22;5238;43.508;4.980;2024-01-15T05:22:57;4.60;91.30
10384;DHT22;5238;43.508;4.980;2024-01-15T05:25:24;4.60;91.30
10384;DHT22;5238;43.508;4.980;2024-01-15T05:27:51;4.60;91.30
10384;DHT22;5238;43.508;4.980;2024-01-15T05:30:18;4.60;91.30
10384;DHT22;5238;43.508;4.980;2024-01-15T05:32:46;4.70;91.30
10384;DHT22;5238;43.508;4.980;2024-01-15T05:35:13;4.70;91.30
10384;DHT22;5238;43.508;4.980;2024-01-15T05:37:43;4.80;91.30
10384;DHT22;5238;43.508;4.980;2024-01-15T05:40:10;4.80;91.30
10384;DHT22;5238;43.508;4.980;2024-01-15T05:42:38;4.90;91.30
10384;DHT22;5238;43.508;4.980;2024-01-15T05:45:05;4.90;91.30
10384;DHT22;5238;43.508;4.980;2024-01-15T05:47:33;5.00;91.30
10384;DHT22;5238;43.508;4.980;2024-01-15T05:50:02;5.00;91.30
10384;DHT22;5238;43.508;4.980;2024-01-15T05:52:29;5.10;91.30
10384;DHT22;5238;43.508;4.980;2024-01-15T05:54:56;5.10;91.30
10384;DHT22;5238;43.508;4.980;2024-01-15T05:57:23;5.20;91.30
10384;DHT22;5238;43.508;4.980;2024-01-15T05:59:50;5.20;91.30
10384;DHT22;5238;43.508;4.980;2024-01-15T06:02:17;5.30;91.30
10384;DHT22;5238;43.508;4.980;2024-01-15T06:04:44;5.30;91.30
10384;DHT22;5238;43.508;4.980;2024-01-15T06:07:13;5.30;91.30
10384;DHT22;5238;43.508;4.980;2024-01-15T06:09:40;5.40;91.30
10384;DHT22;5238;43.508;4.980;2024-01-15T06:12:07;5.40;91.30
10384;DHT22;5238;43.508;4.980;2024-01-15T06:14:34;5.40;91.30
10384;DHT22;5238;43.508;4.980;2024-01-15T06:17:01;5.40;91.30
10384;DHT22;5238;43.508;4.980;2024-01-15T06:19:29;5.50;91.30
10384;DHT22;5238;43.508;4.980;2024-01-15T06:21:56;5.50;91.30
10384;DHT22;5238;43.508;4.980;2024-01-15T06:24:24;5.50;91.30
10384;DHT22;5238;43.508;4.980;2024-01-15T06:26:51;5.50;91.30
10384;DHT22;5238;43.508;4.980;2024-01-15T06:29:18;5.50;91.30
10384;DHT22;5238;43.508;4.980;2024-01-15T06:31:45;5.50;91.30
10384;DHT22;5238;43.508;4.980;2024-01-15T06:34:12;5.50;91.30
10384;DHT22;5238;43.508;4.980;2024-01-15T06:36:39;5.50;91.30
10384;DHT22;5238;43.508;4.980;2024-01-15T06:39:06;5.50;91.30
10384;DHT22;5238;43.508;4.980;2024-01-15T06:41:35;5.50;91.30
10384;DHT22;5238;43.508;4.980;2024-01-15T06:44:07;5.40;91.30
10384;DHT22;5238;43.508;4.980;2024-01-15T06:46:34;5.40;91.30
10384;DHT22;5238;43.508;4.980;2024-01-15T06:49:01;5.50;91.30
10384;DHT22;5238;43.508;4.980;2024-01-15T06:51:29;5.50;91.30
10384;DHT22;5238;43.508;4.980;2024-01-15T06:53:56;5.50;91.30
10384;DHT22;5238;43.508;4.980;2024-01-15T06:56:23;5.50;91.30
10384;DHT22;5238;43.508;4.980;2024-01-15T06:58:51;5.50;91.30
10384;DHT22;5238;43.508;4.980;2024-01-15T07:01:18;5.50;91.30
10384;DHT22;5238;43.508;4.980;2024-01-15T07:03:45;5.50;91.30
10384;DHT22;5238;43.508;4.980;2024-01-15T07:06:12;5.50;91.30
10384;DHT22;5238;43.508;4.980;2024-01-15T07:08:40;5.50;91.30
10384;DHT22;5238;43.508;4.980;2024-01-15T07:11:07;5.40;91.30
10384;DHT22;5238;43.508;4.980;2024-01-15T07:13:35;5.40;91.30
10384;DHT22;5238;43.508;4.980;2024-01-15T07:16:04;5.40;91.30
10384;DHT22;5238;43.508;4.980;2024-01-15T07:18:31;5.40;91.30
10384;DHT22;5238;43.508;4.980;2024-01-15T07:20:58;5.30;91.30
10384;DHT22;5238;43.508;4.980;2024-01-15T07:23:26;5.30;91.30
10384;DHT22;5238;43.508;4.980;2024-01-15T07:25:54;5.30;91.30
10384;DHT22;5238;43.508;4.980;2024-01-15T07:28:20;5.30;91.30
10384;DHT22;5238;43.508;4.980;2024-01-15T07:30:47;5.30;91.30
10384;DHT22;5238;43.508;4.980;2024-01-15T07:33:16;5.20;91.30
10384;DHT22;5238;43.508;4.980;2024-01-15T07:35:43;5.20;91.30
10384;DHT22;5238;43.508;4.980;2024-01-15T07:38:09;5.20;91.30
10384;DHT22;5238;43.508;4.980;2024-01-15T07:40:37;5.20;91.30
10384;DHT22;5238;43.508;4.980;2024-01-15T07:43:04;5.20;91.30
10384;DHT22;5238;43.508;4.980;2024-01-15T07:45:31;5.30;91.30
10384;DHT22;5238;43.508;4.980;2024-01-15T07:47:58;5.40;91.30
10384;DHT22;5238;43.508;4.980;2024-01-15T07:50:26;5.50;91.30
10384;DHT22;5238;43.508;4.980;2024-01-15T07:52:53;5.60;91.30
10384;DHT22;5238;43.508;4.980;2024-01-15T07:55:20;5.80;91.30
10384;DHT22;5238;43.508;4.980;2024-01-15T07:57:47;6.00;91.30
10384;DHT22;5238;43.508;4.980;2024-01-15T08:00:15;6.20;91.30
10384;DHT22;5238;43.508;4.980;2024-01-15T08:02:42;6.40;91.30
10384;DHT22;5238;43.508;4.980;2024-01-15T08:05:09;6.60;91.30
10384;DHT22;5238;43.508;4.980;2024-01-15T08:07:37;6.70;91.30
10384;DHT22;5238;43.508;4.980;2024-01-15T08:10:05;6.80;91.30
10384;DHT22;5238;43.508;4.980;2024-01-15T08:12:32;7.00;91.30
10384;DHT22;5238;43.508;4.980;2024-01-15T08:14:59;7.10;91.30
10384;DHT22;5238;43.508;4.980;2024-01-15T08:17:26;7.20;91.30
10384;DHT22;5238;43.508;4.980;2024-01-15T08:19:54;7.40;91.30
10384;DHT22;5238;43.508;4.980;2024-01-15T08:22:22;7.50;91.30
10384;DHT22;5238;43.508;4.980;2024-01-15T08:24:50;7.50;91.30
10384;DHT22;5238;43.508;4.980;2024-01-15T08:27:17;7.60;91.30
10384;DHT22;5238;43.508;4.980;2024-01-15T08:29:45;7.70;91.30
10384;DHT22;5238;43.508;4.980;2024-01-15T08:32:13;7.80;91.30
10384;DHT22;5238;43.508;4.980;2024-01-15T08:34:41;7.90;91.30
10384;DHT22;5238;43.508;4.980;2024-01-15T08:37:08;8.10;91.30
10384;DHT22;5238;43.508;4.980;2024-01-15T08:39:35;8.20;91.30
10384;DHT22;5238;43.508;4.980;2024-01-15T08:42:05;8.40;91.30
10384;DHT22;5238;43.508;4.980;2024-01-15T08:44:32;8.60;91.30
10384;DHT22;5238;43.508;4.980;2024-01-15T08:46:59;8.80;91.30
10384;DHT22;5238;43.508;4.980;2024-01-15T08:49:26;9.00;91.30
10384;DHT22;5238;43.508;4.980;2024-01-15T08:51:53;9.20;91.30
10384;DHT22;5238;43.508;4.980;2024-01-15T08:54:20;9.70;91.30
10384;DHT22;5238;43.508;4.980;2024-01-15T08:56:47;10.00;91.30
10384;DHT22;5238;43.508;4.980;2024-01-15T08:59:16;10.30;91.30
10384;DHT22;5238;43.508;4.980;2024-01-15T09:01:50;10.50;91.30
10384;DHT22;5238;43.508;4.980;2024-01-15T09:04:17;10.80;91.30
10384;DHT22;5238;43.508;4.980;2024-01-15T09:06:45;11.10;91.30
10384;DHT22;5238;43.508;4.980;2024-01-15T09:09:12;11.50;91.30
10384;DHT22;5238;43.508;4.980;2024-01-15T09:11:40;11.80;91.30
10384;DHT22;5238;43.508;4.980;2024-01-15T09:14:07;12.10;91.30
10384;DHT22;5238;43.508;4.980;2024-01-15T09:16:36;12.40;91.30
10384;DHT22;5238;43.508;4.980;2024-01-15T09:19:03;12.70;91.30
10384;DHT22;5238;43.508;4.980;2024-01-15T09:21:30;13.10;91.30
10384;DHT22;5238;43.508;4.980;2024-01-15T09:23:57;13.30;91.30
10384;DHT22;5238;43.508;4.980;2024-01-15T09:26:24;13.50;91.30
10384;DHT22;5238;43.508;4.980;2024-01-15T09:28:51;13.80;91.30
10384;DHT22;5238;43.508;4.980;2024-01-15T09:31:18;13.90;91.30
10384;DHT22;5238;43.508;4.980;2024-01-15T09:33:48;14.00;91.30
10384;DHT22;5238;43.508;4.980;2024-01-15T09:36:17;14.00;91.30
10384;DHT22;5238;43.508;4.980;2024-01-15T09:38:44;14.10;91.30
10384;DHT22;5238;43.508;4.980;2024-01-15T09:41:11;14.10;91.30
10384;DHT22;5238;43.508;4.980;2024-01-15T09:43:38;14.10;91.30
10384;DHT22;5238;43.508;4.980;2024-01-15T09:46:06;14.10;91.30
10384;DHT22;5238;43.508;4.980;2024-01-15T09:48:33;14.20;91.30
10384;DHT22;5238;43.508;4.980;2024-01-15T09:51:02;14.20;91.30
10384;DHT22;5238;43.508;4.980;2024-01-15T09:53:30;14.30;91.30
10384;DHT22;5238;43.508;4.980;2024-01-15T09:55:58;14.30;91.30
10384;DHT22;5238;43.508;4.980;2024-01-15T09:58:25;14.30;91.30
10384;DHT22;5238;43.508;4.980;2024-01-15T10:00:55;14.40;91.30
10384;DHT22;5238;43.508;4.980;2024-01-15T10:03:23;14.50;91.30
10384;DHT22;5238;43.508;4.980;2024-01-15T10:05:50;14.60;91.30
10384;DHT22;5238;43.508;4.980;2024-01-15T10:08:20;14.60;91.30
10384;DHT22;5238;43.508;4.980;2024-01-15T10:10:47;14.70;91.30
10384;DHT22;5238;43.508;4.980;2024-01-15T10:13:15;14.80;91.30
10384;DHT22;5238;43.508;4.980;2024-01-15T10:15:45;14.90;91.30
10384;DHT22;5238;43.508;4.980;2024-01-15T10:18:12;15.00;91.30
10384;DHT22;5238;43.508;4.980;2024-01-15T10:20:39;15.00;91.30
10384;DHT22;5238;43.508;4.980;2024-01-15T10:23:07;15.10;91.30
10384;DHT22;5238;43.508;4.980;2024-01-15T10:25:36;15.20;91.30
10384;DHT22;5238;43.508;4.980;2024-01-15T10:28:04;15.30;91.30
10384;DHT22;5238;43.508;4.980;2024-01-15T10:30:32;15.40;91.30
10384;DHT22;5238;43.508;4.980;2024-01-15T10:33:00;15.40;91.30
10384;DHT22;5238;43.508;4.980;2024-01-15T10:35:29;15.50;91.30
10384;DHT22;5238;43.508;4.980;2024-01-15T10:37:56;15.60;91.30
10384;DHT22;5238;43.508;4.980;2024-01-15T10:40:23;15.70;91.30
10384;DHT22;5238;43.508;4.980;2024-01-15T10:42:52;15.70;91.30
10384;DHT22;5238;43.508;4.980;2024-01-15T10:45:19;15.80;91.30
10384;DHT22;5238;43.508;4.980;2024-01-15T10:47:46;15.80;91.30
10384;DHT22;5238;43.508;4.980;2024-01-15T10:50:14;15.80;91.30
10384;DHT22;5238;43.508;4.980;2024-01-15T10:52:42;15.80;91.30
10384;DHT22;5238;43.508;4.980;2024-01-15T10:55:10;15.80;91.30
10384;DHT22;5238;43.508;4.980;2024-01-15T10:57:38;15.80;91.30
10384;DHT22;5238;43.508;4.980;2024-01-15T11:00:08;15.80;91.30
10384;DHT22;5238;43.508;4.980;2024-01-15T11:02:40;15.90;91.30
10384;DHT22;5238;43.508;4.980;2024-01-15T11:05:08;15.90;91.30
10384;DHT22;5238;43.508;4.980;2024-01-15T11:07:35;15.90;91.30
10384;DHT22;5238;43.508;4.980;2024-01-15T11:10:04;15.90;91.30
10384;DHT22;5238;43.508;4.980;2024-01-15T11:12:31;15.90;91.30
10384;DHT22;5238;43.508;4.980;2024-01-15T11:15:02;15.90;91.30
10384;DHT22;5238;43.508;4.980;2024-01-15T11:17:58;15.90;91.30
10384;DHT22;5238;43.508;4.980;2024-01-15T11:20:26;15.80;91.30
10384;DHT22;5238;43.508;4.980;2024-01-15T11:22:52;15.80;91.30
10384;DHT22;5238;43.508;4.980;2024-01-15T11:25:22;15.80;91.30
10384;DHT22;5238;43.508;4.980;2024-01-15T11:27:50;15.80;91.30
10384;DHT22;5238;43.508;4.980;2024-01-15T11:30:18;15.70;91.30
10384;DHT22;5238;43.508;4.980;2024-01-15T11:32:47;15.70;91.30
10384;DHT22;5238;43.508;4.980;2024-01-15T11:35:14;15.60;91.30
10384;DHT22;5238;43.508;4.980;2024-01-15T11:37:57;15.60;91.30
10384;DHT22;5238;43.508;4.980;2024-01-15T11:40:37;15.50;91.30
10384;DHT22;5238;43.508;4.980;2024-01-15T11:43:04;15.50;91.30
10384;DHT22;5238;43.508;4.980;2024-01-15T11:45:32;15.50;91.30
10384;DHT22;5238;43.508;4.980;2024-01-15T11:48:14;15.40;91.30
10384;DHT22;5238;43.508;4.980;2024-01-15T11:50:43;15.40;91.30
10384;DHT22;5238;43.508;4.980;2024-01-15T11:53:17;15.40;91.30
10384;DHT22;5238;43.508;4.980;2024-01-15T11:55:45;15.30;91.30
10384;DHT22;5238;43.508;4.980;2024-01-15T11:58:14;15.20;91.30
10384;DHT22;5238;43.508;4.980;2024-01-15T12:00:43;15.20;91.30
10384;DHT22;5238;43.508;4.980;2024-01-15T12:03:12;15.20;91.30
10384;DHT22;5238;43.508;4.980;2024-01-15T12:05:39;15.10;91.30
10384;DHT22;5238;43.508;4.980;2024-01-15T12:08:07;15.10;91.30
10384;DHT22;5238;43.508;4.980;2024-01-15T12:10:37;15.00;91.30
10384;DHT22;5238;43.508;4.980;2024-01-15T12:13:09;15.00;91.30
10384;DHT22;5238;43.508;4.980;2024-01-15T12:15:36;14.90;91.30
10384;DHT22;5238;43.508;4.980;2024-01-15T12:18:04;15.00;91.30
10384;DHT22;5238;43.508;4.980;2024-01-15T12:20:32;14.90;91.30
10384;DHT22;5238;43.508;4.980;2024-01-15T12:23:00;14.90;91.30
10384;DHT22;5238;43.508;4.980;2024-01-15T12:25:29;14.90;91.30
10384;DHT22;5238;43.508;4.980;2024-01-15T12:27:57;14.90;91.30
10384;DHT22;5238;43.508;4.980;2024-01-15T12:30:26;14.90;91.30
10384;DHT22;5238;43.508;4.980;2024-01-15T12:32:53;14.90;91.30
10384;DHT22;5238;43.508;4.980;2024-01-15T12:35:20;14.90;91.30
10384;DHT22;5238;43.508;4.980;2024-01-15T12:37:49;14.90;91.30
10384;DHT22;5238;43.508;4.980;2024-01-15T12:40:19;14.90;91.30
10384;DHT22;5238;43.508;4.980;2024-01-15T12:42:46;14.90;91.30
10384;DHT22;5238;43.508;4.980;2024-01-15T12:45:13;14.90;91.30
10384;DHT22;5238;43.508;4.980;2024-01-15T12:47:41;14.90;91.30
10384;DHT22;5238;43.508;4.980;2024-01-15T12:50:09;14.90;91.30
10384;DHT22;5238;43.508;4.980;2024-01-15T12:52:39;14.90;91.30
10384;DHT22;5238;43.508;4.980;2024-01-15T12:55:09;15.00;91.30
10384;DHT22;5238;43.508;4.980;2024-01-15T12:57:36;15.00;91.30
10384;DHT22;5238;43.508;4.980;2024-01-15T13:00:05;14.90;91.30
10384;DHT22;5238;43.508;4.980;2024-01-15T13:02:33;14.90;91.30
10384;DHT22;5238;43.508;4.980;2024-01-15T13:05:00;14.90;91.30
10384;DHT22;5238;43.508;4.980;2024-01-15T13:07:29;14.90;91.30
10384;DHT22;5238;43.508;4.980;2024-01-15T13:09:56;14.90;91.30
10384;DHT22;5238;43.508;4.980;2024-01-15T13:12:25;14.90;91.30
10384;DHT22;5238;43.508;4.980;2024-01-15T13:14:52;14.90;91.30
10384;DHT22;5238;43.508;4.980;2024-01-15T13:17:19;14.90;91.30
10384;DHT22;5238;43.508;4.980;2024-01-15T13:19:47;14.90;91.30
10384;DHT22;5238;43.508;4.980;2024-01-15T13:22:14;14.90;91.30
10384;DHT22;5238;43.508;4.980;2024-01-15T13:24:41;14.90;91.30
10384;DHT22;5238;43.508;4.980;2024-01-15T13:27:09;14.90;91.30
10384;DHT22;5238;43.508;4.980;2024-01-15T13:29:38;14.90;91.30
10384;DHT22;5238;43.508;4.980;2024-01-15T13:32:06;14.80;91.30
10384;DHT22;5238;43.508;4.980;2024-01-15T13:34:33;14.90;91.30
10384;DHT22;5238;43.508;4.980;2024-01-15T13:37:00;14.90;91.30
10384;DHT22;5238;43.508;4.980;2024-01-15T13:39:28;14.90;91.30
10384;DHT22;5238;43.508;4.980;2024-01-15T13:41:58;14.90;91.30
10384;DHT22;5238;43.508;4.980;2024-01-15T13:44:25;14.80;91.30
10384;DHT22;5238;43.508;4.980;2024-01-15T13:46:54;14.90;91.30
10384;DHT22;5238;43.508;4.980;2024-01-15T13:49:22;14.90;91.30
10384;DHT22;5238;43.508;4.980;2024-01-15T13:51:50;14.90;91.30
10384;DHT22;5238;43.508;4.980;2024-01-15T13:54:16;14.90;91.30
10384;DHT22;5238;43.508;4.980;2024-01-15T13:56:45;14.90;91.30
10384;DHT22;5238;43.508;4.980;2024-01-15T13:59:12;14.90;91.30
10384;DHT22;5238;43.508;4.980;2024-01-15T14:01:39;14.80;91.30
10384;DHT22;5238;43.508;4.980;2024-01-15T14:04:08;14.80;91.30
10384;DHT22;5238;43.508;4.980;2024-01-15T14:06:35;14.80;91.30
10384;DHT22;5238;43.508;4.980;2024-01-15T14:09:02;14.80;91.30
10384;DHT22;5238;43.508;4.980;2024-01-15T14:11:30;14.80;91.30
10384;DHT22;5238;43.508;4.980;2024-01-15T14:13:57;14.80;91.30
10384;DHT22;5238;43.508;4.980;2024-01-15T14:16:24;14.80;91.30
10384;DHT22;5238;43.508;4.980;2024-01-15T14:18:51;14.80;91.30
10384;DHT22;5238;43.508;4.980;2024-01-15T14:21:20;14.80;91.30
10384;DHT22;5238;43.508;4.980;2024-01-15T14:23:48;14.80;91.30
10384;DHT22;5238;43.508;4.980;2024-01-15T14:26:15;14.80;91.30
10384;DHT22;5238;43.508;4.980;2024-01-15T14:28:42;14.80;91.30
10384;DHT22;5238;43.508;4.980;2024-01-15T14:31:09;14.90;91.30
10384;DHT22;5238;43.508;4.980;2024-01-15T14:33:36;14.80;91.30
10384;DHT22;5238;43.508;4.980;2024-01-15T14:36:04;14.80;91.30
10384;DHT22;5238;43.508;4.980;2024-01-15T14:38:32;14.80;91.30
10384;DHT22;5238;43.508;4.980;2024-01-15T14:41:00;14.80;91.30
10384;DHT22;5238;43.508;4.980;2024-01-15T14:43:27;14.80;91.30
10384;DHT22;5238;43.508;4.980;2024-01-15T14:45:54;14.80;91.30
10384;DHT22;5238;43.508;4.980;2024-01-15T14:48:22;14.80;91.30
10384;DHT22;5238;43.508;4.980;2024-01-15T14:50:49;14.70;91.30
10384;DHT22;5238;43.508;4.980;2024-01-15T14:53:17;14.70;91.30
10384;DHT22;5238;43.508;4.980;2024-01-15T14:55:45;14.70;91.30
10384;DHT22;5238;43.508;4.980;2024-01-15T14:58:12;14.70;91.30
10384;DHT22;5238;43.508;4.980;2024-01-15T15:00:39;14.60;91.30
10384;DHT22;5238;43.508;4.980;2024-01-15T15:03:06;14.60;91.30
10384;DHT22;5238;43.508;4.980;2024-01-15T15:05:33;14.60;91.30
10384;DHT22;5238;43.508;4.980;2024-01-15T15:08:00;14.60;91.30
10384;DHT22;5238;43.508;4.980;2024-01-15T15:10:28;14.60;91.30
10384;DHT22;5238;43.508;4.980;2024-01-15T15:12:56;14.60;91.30
10384;DHT22;5238;43.508;4.980;2024-01-15T15:15:23;14.50;91.30
10384;DHT22;5238;43.508;4.980;2024-01-15T15:17:50;14.60;91.30
10384;DHT22;5238;43.508;4.980;2024-01-15T15:20:17;14.60;91.30
10384;DHT22;5238;43.508;4.980;2024-01-15T15:22:46;14.60;91.30
10384;DHT22;5238;43.508;4.980;2024-01-15T15:25:13;14.50;91.30
10384;DHT22;5238;43.508;4.980;2024-01-15T15:27:40;14.60;91.30
10384;DHT22;5238;43.508;4.980;2024-01-15T15:30:09;14.50;91.30
10384;DHT22;5238;43.508;4.980;2024-01-15T15:32:36;14.50;91.30
10384;DHT22;5238;43.508;4.980;2024-01-15T15:35:03;14.50;91.30
10384;DHT22;5238;43.508;4.980;2024-01-15T15:37:32;14.50;91.30
10384;DHT22;5238;43.508;4.980;2024-01-15T15:39:59;14.50;91.30
10384;DHT22;5238;43.508;4.980;2024-01-15T15:42:26;14.50;91.30
10384;DHT22;5238;43.508;4.980;2024-01-15T15:44:53;14.40;91.30
10384;DHT22;5238;43.508;4.980;2024-01-15T15:47:23;14.40;91.30
10384;DHT22;5238;43.508;4.980;2024-01-15T15:49:50;14.30;91.30
10384;DHT22;5238;43.508;4.980;2024-01-15T15:52:16;14.30;91.30
10384;DHT22;5238;43.508;4.980;2024-01-15T15:54:43;14.30;91.30
10384;DHT22;5238;43.508;4.980;2024-01-15T15:57:10;14.20;91.30